首页
METAR-TAF:

METAR-TAF

机场 :

奥古斯塔, 喬治亞, 美国

纬度: 33-21-52N, 经度: 081-57-48W, 海拔: 44米

当前天气观测

该预报发布于15分钟前的10:53 UTC
静风
温度 6°C
湿度 93%
气压 1016 hPa
能見度: 12.9公里
散云层高于8000英尺

METAR: KAGS 211053Z 00000KT 8SM SCT080 06/05 A3001 RMK AO2 SLP160 T00610050 $

时间: 07:08 (11:08 UTC)

预报

该预报发布于2小时和25分钟前的08:43 UTC
预报有效从21日的 09点(UTC)到 22日的 06点(UTC)
风速6节,风向西
能見度: 10公里
散云层高于5000英尺
从 21日的 1600点(UTC)
风速10节,风向西北
能見度: 10公里
少量云层高于5000英尺
从 22日的 0000点(UTC)
风速3节,风向多变
能見度: 10公里
天空无云

TAF: KAGS 210843Z 2109/2206 27006KT P6SM SCT050 FM211600 31010KT P6SM FEW050 FM220000 VRB03KT P6SM SKC

超过4000个机场的气象观测和天气预报(METAR&TAF报告)。

可查询的气象台以黄色和红色小点在地图上表示。

将鼠标移到小点上方,可查看气象台名称。

然后点击查看天气观测和预报。

如需切换地图:点击带黑十字的绿色按钮放大地图;点击带横线的绿色按钮缩小地图;或者点击绿色箭头查看邻近地区的地图。


METAR-TAF: